Time;durP1;ratioP1;P1;durP2;ratioP2;P2;SDS_P1;SDS_P2;PMS_P1;PMS_P2;Temp;Humidity;BMP_temperature;BMP_pressure;BME280_temperature;BME280_humidity;BME280_pressure;Samples;Min_cycle;Max_cycle;Signal;HPM_P1;HPM_P2
2022/10/17 00:00:54;;;;;;;2.90;2.60;;;;;;;15.69;92.51;99201.00;5035613;27;103314;-64
2022/10/17 00:03:22;;;;;;;6.40;3.33;;;;;;;15.64;92.07;99200.56;5038374;27;102623;-65
2022/10/17 00:05:52;;;;;;;3.30;2.87;;;;;;;15.63;92.58;99207.72;5034849;27;104382;-65
2022/10/17 00:08:20;;;;;;;4.60;2.40;;;;;;;15.62;92.44;99205.19;5041662;27;103907;-65
2022/10/17 00:10:56;;;;;;;4.20;2.80;;;;;;;15.59;92.87;99200.97;5040432;27;103298;-65
2022/10/17 00:13:25;;;;;;;3.83;2.67;;;;;;;15.60;92.21;99202.69;5037547;27;102705;-65
2022/10/17 00:15:53;;;;;;;2.90;2.27;;;;;;;15.63;92.04;99202.38;5039648;27;103814;-65
2022/10/17 00:18:22;;;;;;;2.30;2.10;;;;;;;15.57;92.91;99202.94;5040342;27;104262;-65
2022/10/17 00:20:50;;;;;;;4.00;2.97;;;;;;;15.50;91.61;99207.06;5040268;27;103352;-64
2022/10/17 00:23:18;;;;;;;2.13;1.93;;;;;;;15.54;92.35;99211.19;5040901;27;102676;-65
2022/10/17 00:25:46;;;;;;;2.87;2.57;;;;;;;15.56;92.58;99208.38;5044321;27;103598;-64
2022/10/17 00:28:16;;;;;;;3.53;2.17;;;;;;;15.57;92.35;99213.59;5039888;27;103355;-65
2022/10/17 00:30:43;;;;;;;3.47;2.43;;;;;;;15.60;92.86;99216.00;5037494;27;104336;-65
2022/10/17 00:33:11;;;;;;;4.17;2.40;;;;;;;15.68;92.51;99220.66;5039098;27;103159;-65
2022/10/17 00:35:40;;;;;;;4.30;2.37;;;;;;;15.70;92.06;99212.53;5038323;27;103594;-65
2022/10/17 00:38:10;;;;;;;5.70;2.20;;;;;;;15.69;91.79;99221.50;5041143;27;104147;-64
2022/10/17 00:40:37;;;;;;;3.73;2.10;;;;;;;15.67;91.28;99221.63;5039302;27;103244;-64
2022/10/17 00:43:11;;;;;;;2.00;1.80;;;;;;;15.63;91.09;99218.38;5049835;27;102616;-65
2022/10/17 00:45:39;;;;;;;3.13;1.83;;;;;;;15.60;91.00;99221.31;5043849;27;103184;-64
2022/10/17 00:48:09;;;;;;;1.57;1.47;;;;;;;15.55;91.01;99210.19;5041133;27;104066;-64
2022/10/17 00:50:43;;;;;;;1.43;1.30;;;;;;;15.54;90.90;99215.66;5046803;27;103239;-65
2022/10/17 00:53:11;;;;;;;3.67;2.33;;;;;;;15.50;90.55;99212.41;5040866;27;104240;-64
2022/10/17 00:55:47;;;;;;;2.53;1.90;;;;;;;15.36;92.14;99215.34;5043538;27;104224;-65
2022/10/17 00:58:18;;;;;;;2.27;1.70;;;;;;;15.41;91.92;99218.47;5062374;27;103867;-65
2022/10/17 01:00:49;;;;;;;1.93;1.57;;;;;;;15.40;91.78;99211.47;5043915;27;103230;-64
2022/10/17 01:03:16;;;;;;;2.13;1.70;;;;;;;15.45;92.15;99214.56;5054602;27;102778;-65
2022/10/17 01:05:46;;;;;;;2.00;1.70;;;;;;;15.54;91.95;99218.31;5042059;27;103932;-65
2022/10/17 01:08:14;;;;;;;1.73;1.60;;;;;;;15.50;92.25;99217.72;5040569;27;103683;-65
2022/10/17 01:10:55;;;;;;;2.87;1.63;;;;;;;15.51;91.94;99222.09;5041719;27;104363;-65
2022/10/17 01:13:28;;;;;;;2.43;1.90;;;;;;;15.39;92.49;99223.06;5040658;27;102915;-65
2022/10/17 01:16:06;;;;;;;4.27;2.37;;;;;;;15.39;92.60;99223.06;5038626;27;102712;-64
2022/10/17 01:18:45;;;;;;;3.30;1.70;;;;;;;15.34;91.67;99233.28;5036903;27;105293;-64
2022/10/17 01:21:33;;;;;;;5.77;2.50;;;;;;;15.15;91.28;99216.28;5054367;27;104117;-64
2022/10/17 01:24:51;;;;;;;1.97;1.77;;;;;;;15.22;92.71;99220.97;5043202;27;102675;-64
2022/10/17 01:27:36;;;;;;;6.47;2.40;;;;;;;14.72;93.97;99222.47;4978690;28;103831;-65
2022/10/17 01:30:38;;;;;;;6.00;2.63;;;;;;;14.82;94.56;99219.91;4995141;28;106715;-64
2022/10/17 01:33:14;;;;;;;4.03;2.50;;;;;;;14.41;95.52;99223.22;5027127;27;103232;-64
2022/10/17 01:35:50;;;;;;;4.93;2.50;;;;;;;14.66;96.25;99219.44;5036095;27;102735;-65
2022/10/17 01:38:22;;;;;;;4.60;2.40;;;;;;;14.76;95.09;99220.41;5042877;27;102820;-64
2022/10/17 01:40:56;;;;;;;5.63;2.43;;;;;;;14.76;94.76;99221.25;5035601;27;103287;-65
2022/10/17 01:43:31;;;;;;;2.30;1.90;;;;;;;14.80;95.45;99216.50;5040673;27;105977;-65
2022/10/17 01:46:07;;;;;;;3.70;2.07;;;;;;;14.87;94.59;99221.22;5036256;27;103043;-65
2022/10/17 01:48:43;;;;;;;3.30;2.33;;;;;;;14.89;93.47;99221.09;5040551;27;103141;-65
2022/10/17 01:51:17;;;;;;;2.60;2.20;;;;;;;14.96;93.46;99216.97;5043997;27;103296;-65
2022/10/17 01:53:52;;;;;;;3.13;2.50;;;;;;;14.80;93.47;99216.50;5038070;27;103754;-65
2022/10/17 01:56:25;;;;;;;2.37;2.10;;;;;;;14.86;93.61;99216.88;5038777;27;103149;-65
2022/10/17 01:58:56;;;;;;;2.90;2.00;;;;;;;14.87;92.88;99212.41;5038033;27;102646;-65
2022/10/17 02:01:28;;;;;;;4.77;2.40;;;;;;;14.88;92.72;99216.72;5036917;27;104467;-64
2022/10/17 02:04:02;;;;;;;4.23;2.97;;;;;;;14.65;91.97;99215.13;5054197;27;106053;-64
2022/10/17 02:06:35;;;;;;;7.03;2.17;;;;;;;14.43;94.74;99206.19;5036176;27;103826;-64
2022/10/17 02:09:22;;;;;;;4.33;2.60;;;;;;;14.29;94.85;99203.75;5042520;27;103788;-64
2022/10/17 02:12:12;;;;;;;2.17;1.97;;;;;;;14.40;95.92;99210.91;5036681;27;103271;-64
2022/10/17 02:14:57;;;;;;;6.13;2.77;;;;;;;14.35;96.93;99205.97;5030490;27;105390;-63
2022/10/17 02:17:36;;;;;;;5.93;3.17;;;;;;;14.09;97.64;99204.47;5034500;27;102758;-64
2022/10/17 02:20:15;;;;;;;4.33;2.70;;;;;;;13.98;100.00;99211.63;5031521;27;104533;-63
2022/10/17 02:22:47;;;;;;;2.20;2.00;;;;;;;14.19;99.42;99208.13;5044574;27;104499;-63
2022/10/17 02:25:23;;;;;;;2.77;2.57;;;;;;;14.35;98.40;99210.44;5032346;27;103236;-63
2022/10/17 02:28:00;;;;;;;4.67;2.70;;;;;;;14.46;97.53;99211.25;5031761;27;102748;-63
2022/10/17 02:30:36;;;;;;;10.50;3.43;;;;;;;14.29;96.15;99209.06;5032916;27;104164;-63
2022/10/17 02:33:14;;;;;;;5.97;2.70;;;;;;;14.40;95.86;99209.09;5038100;27;103244;-63
2022/10/17 02:35:49;;;;;;;3.00;2.37;;;;;;;14.49;96.06;99211.03;5043084;27;105082;-63
2022/10/17 02:38:18;;;;;;;1.87;1.70;;;;;;;14.49;95.34;99213.69;5043312;27;103144;-64
2022/10/17 02:40:50;;;;;;;2.40;1.90;;;;;;;14.58;94.62;99216.56;5039640;27;103958;-63
2022/10/17 02:43:19;;;;;;;1.83;1.73;;;;;;;14.56;93.73;99218.50;5039433;27;103770;-64
2022/10/17 02:45:47;;;;;;;4.00;2.03;;;;;;;14.47;93.31;99218.28;5041019;27;104245;-63
2022/10/17 02:48:22;;;;;;;7.90;3.13;;;;;;;14.39;92.68;99217.19;5037421;27;102771;-63
2022/10/17 02:51:00;;;;;;;5.93;3.23;;;;;;;13.98;94.86;99219.59;5041578;27;103211;-64
2022/10/17 02:53:37;;;;;;;4.53;2.40;;;;;;;14.22;95.49;99221.16;5039441;27;103656;-64
2022/10/17 02:56:14;;;;;;;6.27;3.20;;;;;;;13.99;94.61;99232.75;5054624;27;103203;-63
2022/10/17 02:58:46;;;;;;;5.03;2.67;;;;;;;13.95;96.00;99218.00;5040701;27;102811;-64
2022/10/17 03:01:15;;;;;;;4.37;2.13;;;;;;;14.02;96.00;99227.19;5033240;27;102687;-63
2022/10/17 03:03:45;;;;;;;3.47;2.17;;;;;;;13.99;96.08;99219.47;5029155;27;103272;-64
2022/10/17 03:06:14;;;;;;;3.43;2.30;;;;;;;14.01;95.71;99222.84;5046692;27;104166;-63
2022/10/17 03:08:42;;;;;;;2.00;1.80;;;;;;;14.19;95.61;99225.88;5028999;27;103067;-63
2022/10/17 03:11:10;;;;;;;2.67;2.47;;;;;;;13.94;94.54;99211.00;5030035;27;102889;-63
2022/10/17 03:13:39;;;;;;;3.27;2.13;;;;;;;13.74;97.52;99222.31;5032825;27;105900;-64
2022/10/17 03:16:09;;;;;;;4.80;2.23;;;;;;;13.81;97.14;99220.91;5045717;27;103136;-64
2022/10/17 03:18:38;;;;;;;3.47;1.90;;;;;;;13.49;99.66;99220.72;5029218;27;102760;-64
2022/10/17 03:21:06;;;;;;;3.67;1.80;;;;;;;13.57;99.48;99220.13;5033255;27;104305;-64
2022/10/17 03:23:35;;;;;;;4.63;2.43;;;;;;;13.59;98.08;99231.44;5062689;27;104916;-64
2022/10/17 03:26:05;;;;;;;3.00;2.80;;;;;;;13.41;99.53;99222.25;5050488;27;103231;-64
2022/10/17 03:28:34;;;;;;;3.17;2.20;;;;;;;13.47;99.93;99230.59;5042761;27;102889;-64
2022/10/17 03:31:06;;;;;;;2.53;2.30;;;;;;;13.54;98.98;99233.63;5038491;27;104022;-64
2022/10/17 03:33:35;;;;;;;6.33;2.47;;;;;;;13.68;99.22;99242.22;5037810;27;103395;-64
2022/10/17 03:36:07;;;;;;;3.17;2.50;;;;;;;13.76;98.66;99236.31;5032195;27;103546;-63
2022/10/17 03:38:37;;;;;;;5.30;2.53;;;;;;;13.79;98.13;99238.75;5045119;27;102788;-66
2022/10/17 03:41:07;;;;;;;3.33;2.10;;;;;;;13.85;97.63;99239.13;5034209;27;102907;-66
2022/10/17 03:43:36;;;;;;;2.83;2.30;;;;;;;13.88;97.16;99238.03;5045678;27;103230;-65
2022/10/17 03:46:04;;;;;;;6.13;4.33;;;;;;;13.80;95.99;99245.75;5028735;27;104132;-65
2022/10/17 03:48:33;;;;;;;5.10;3.23;;;;;;;13.45;98.93;99236.97;5046090;27;102895;-63
2022/10/17 03:51:03;;;;;;;11.87;3.57;;;;;;;12.93;100.00;99240.81;5049317;27;103987;-64
2022/10/17 03:53:34;;;;;;;5.50;3.67;;;;;;;13.24;100.00;99245.59;5028766;27;105685;-63
2022/10/17 03:56:26;;;;;;;4.70;2.83;;;;;;;13.40;100.00;99241.78;5099459;27;102679;-66
2022/10/17 03:59:02;;;;;;;4.07;3.10;;;;;;;13.63;100.00;99235.56;5090628;27;103828;-66
2022/10/17 04:01:32;;;;;;;5.17;3.60;;;;;;;13.54;100.00;99244.22;5085552;27;104645;-66
2022/10/17 04:04:01;;;;;;;3.20;2.43;;;;;;;13.77;100.00;99246.00;5081431;27;104237;-66
2022/10/17 04:06:32;;;;;;;3.03;2.73;;;;;;;13.87;100.00;99246.97;5083908;27;103167;-66
2022/10/17 04:09:00;;;;;;;6.53;3.47;;;;;;;13.83;100.00;99250.84;5084697;27;104217;-65
2022/10/17 04:11:38;;;;;;;5.70;2.63;;;;;;;13.88;100.00;99253.97;5083247;27;105219;-68
2022/10/17 04:14:07;;;;;;;3.17;2.87;;;;;;;13.96;100.00;99259.53;5084423;27;105208;-65
2022/10/17 04:16:38;;;;;;;8.27;4.03;;;;;;;13.80;100.00;99251.91;5087943;27;102846;-64
2022/10/17 04:19:13;;;;;;;6.30;3.03;;;;;;;13.88;100.00;99262.81;5085139;27;103618;-66
2022/10/17 04:21:46;;;;;;;3.90;2.90;;;;;;;14.10;100.00;99267.28;5110194;27;103613;-66
2022/10/17 04:24:15;;;;;;;4.03;2.90;;;;;;;14.05;100.00;99266.81;5080823;27;105297;-66
2022/10/17 04:27:03;;;;;;;2.83;2.40;;;;;;;14.14;100.00;99271.41;5105484;27;103091;-66
2022/10/17 04:29:35;;;;;;;2.37;2.17;;;;;;;14.13;100.00;99264.41;5107969;27;104436;-66
2022/10/17 04:32:25;;;;;;;5.03;3.03;;;;;;;14.17;99.67;99283.63;5087562;27;104647;-66
2022/10/17 04:35:01;;;;;;;3.60;3.10;;;;;;;14.19;99.20;99279.88;5082048;27;103193;-66
2022/10/17 04:37:29;;;;;;;4.23;3.20;;;;;;;14.21;98.58;99283.25;5089464;27;102725;-66
2022/10/17 04:39:58;;;;;;;9.27;4.20;;;;;;;14.17;100.00;99276.50;5085038;27;104265;-66
2022/10/17 04:42:30;;;;;;;3.00;2.40;;;;;;;14.37;99.72;99282.94;5087072;27;104133;-65
2022/10/17 04:44:59;;;;;;;4.80;3.60;;;;;;;14.31;99.07;99278.91;5085478;27;105897;-65
2022/10/17 04:47:27;;;;;;;5.83;3.40;;;;;;;14.31;98.82;99284.22;5109872;27;102692;-65
2022/10/17 04:49:56;;;;;;;5.53;2.77;;;;;;;14.30;98.72;99276.38;5085880;27;102875;-65
2022/10/17 04:52:24;;;;;;;5.43;3.40;;;;;;;14.04;99.41;99281.03;5080000;27;103793;-64
2022/10/17 04:54:52;;;;;;;5.40;3.43;;;;;;;14.03;100.00;99284.69;5094122;27;103436;-64
2022/10/17 04:57:21;;;;;;;3.67;3.37;;;;;;;14.24;100.00;99280.34;5080815;27;102707;-65
2022/10/17 04:59:57;;;;;;;3.60;2.73;;;;;;;14.25;100.00;99276.75;5086021;27;104369;-65
2022/10/17 05:02:58;;;;;;;4.40;3.00;;;;;;;14.22;100.00;99279.63;5075293;27;103330;-64
2022/10/17 05:05:27;;;;;;;3.57;3.10;;;;;;;14.28;100.00;99279.16;5086387;27;105210;-64
2022/10/17 05:07:56;;;;;;;8.10;3.57;;;;;;;14.29;100.00;99280.81;5067137;27;102841;-66
2022/10/17 05:10:28;;;;;;;3.97;2.97;;;;;;;14.27;99.61;99293.41;5069383;27;103906;-66
2022/10/17 05:12:57;;;;;;;3.40;3.03;;;;;;;14.34;100.00;99294.63;5074354;27;105678;-65
2022/10/17 05:15:31;;;;;;;3.77;2.70;;;;;;;14.41;99.71;99290.53;5074424;27;102754;-66
2022/10/17 05:18:02;;;;;;;3.90;2.60;;;;;;;14.11;100.00;99290.25;5072902;27;102673;-66
2022/10/17 05:20:30;;;;;;;6.07;3.77;;;;;;;14.06;100.00;99283.59;5072897;27;104011;-66
2022/10/17 05:22:59;;;;;;;4.50;3.67;;;;;;;14.02;100.00;99287.44;5074453;27;105130;-65
2022/10/17 05:25:32;;;;;;;3.73;3.43;;;;;;;14.36;100.00;99281.22;5077019;27;105147;-65
2022/10/17 05:28:00;;;;;;;3.77;3.47;;;;;;;14.48;100.00;99283.75;5093988;27;102849;-65
2022/10/17 05:30:28;;;;;;;3.60;3.30;;;;;;;14.46;100.00;99283.03;5074063;27;102676;-65
2022/10/17 05:33:06;;;;;;;5.23;3.13;;;;;;;14.56;99.73;99287.63;5076469;27;103791;-65
2022/10/17 05:35:34;;;;;;;3.10;2.53;;;;;;;14.57;99.27;99284.03;5073657;27;106408;-65
2022/10/17 05:38:02;;;;;;;7.67;3.00;;;;;;;14.61;99.00;99281.00;5075336;27;102605;-65
2022/10/17 05:40:33;;;;;;;3.13;2.80;;;;;;;14.65;98.82;99293.09;5070689;27;103906;-67
2022/10/17 05:43:02;;;;;;;5.50;3.23;;;;;;;14.59;98.47;99288.25;5070255;27;104739;-68
2022/10/17 05:45:30;;;;;;;4.73;3.00;;;;;;;14.62;98.37;99287.16;5092061;27;103185;-64
2022/10/17 05:47:59;;;;;;;4.73;3.47;;;;;;;14.63;98.46;99291.50;5074783;27;103034;-64
2022/10/17 05:50:30;;;;;;;3.77;3.27;;;;;;;14.35;99.71;99284.84;5074268;27;104185;-64
2022/10/17 05:53:09;;;;;;;6.90;3.63;;;;;;;14.56;98.19;99292.97;5076723;27;104624;-64
2022/10/17 05:55:42;;;;;;;3.90;3.30;;;;;;;14.64;97.75;99301.16;5089914;27;103967;-64
2022/10/17 05:58:11;;;;;;;6.70;3.10;;;;;;;14.70;97.18;99306.00;5093482;27;102610;-65
2022/10/17 06:00:52;;;;;;;3.77;3.33;;;;;;;14.70;97.08;99306.84;5079290;27;104213;-65
2022/10/17 06:03:20;;;;;;;9.10;3.80;;;;;;;14.75;96.73;99304.66;5079466;27;103395;-65
2022/10/17 06:05:50;;;;;;;3.53;2.80;;;;;;;14.83;96.01;99312.03;5082167;27;103320;-64
2022/10/17 06:08:18;;;;;;;7.80;3.60;;;;;;;14.82;96.33;99313.84;5071283;27;102665;-64
2022/10/17 06:10:47;;;;;;;3.17;2.27;;;;;;;14.87;96.27;99310.81;5069103;27;102836;-64
2022/10/17 06:13:18;;;;;;;4.83;3.30;;;;;;;14.82;95.90;99311.19;5075485;27;103379;-64
2022/10/17 06:15:49;;;;;;;8.23;4.37;;;;;;;14.86;95.69;99309.13;5069380;27;103160;-64
2022/10/17 06:18:18;;;;;;;5.90;3.00;;;;;;;14.88;95.54;99316.00;5074373;27;103274;-65
2022/10/17 06:20:46;;;;;;;4.87;3.00;;;;;;;14.79;95.45;99321.25;5075156;27;104094;-65
2022/10/17 06:23:18;;;;;;;5.07;3.97;;;;;;;14.72;95.88;99314.69;5074575;27;103377;-64
2022/10/17 06:25:54;;;;;;;3.03;2.73;;;;;;;14.76;96.12;99321.47;5068502;27;105596;-64
2022/10/17 06:28:21;;;;;;;5.07;3.30;;;;;;;14.76;96.12;99321.47;5070422;27;102764;-64
2022/10/17 06:30:49;;;;;;;3.33;3.03;;;;;;;14.74;96.50;99313.59;5068119;27;104615;-64
2022/10/17 06:33:17;;;;;;;2.33;2.13;;;;;;;14.78;96.13;99320.38;5067715;27;104188;-64
2022/10/17 06:35:51;;;;;;;11.87;4.30;;;;;;;14.78;95.51;99319.53;5070067;27;103176;-64
2022/10/17 06:38:21;;;;;;;5.17;2.97;;;;;;;14.90;95.55;99323.88;5068878;27;102739;-64
2022/10/17 06:40:52;;;;;;;13.40;5.00;;;;;;;14.47;97.24;99316.66;5088674;27;102935;-64
2022/10/17 06:43:21;;;;;;;3.50;3.03;;;;;;;14.76;97.12;99324.16;5087803;27;103371;-64
2022/10/17 06:46:25;;;;;;;6.43;3.80;;;;;;;14.64;97.55;99338.41;5063708;27;103220;-65
2022/10/17 06:49:05;;;;;;;5.60;3.20;;;;;;;15.00;96.65;99352.28;5068509;27;102754;-64
2022/10/17 06:52:02;;;;;;;8.80;4.97;;;;;;;14.86;97.03;99349.03;5020773;27;103571;-64
2022/10/17 06:54:54;;;;;;;7.43;4.80;;;;;;;14.84;97.88;99356.28;5074028;27;103269;-65
2022/10/17 06:57:39;;;;;;;8.40;4.90;;;;;;;15.51;95.29;99357.91;5090336;27;103341;-64
2022/10/17 07:00:26;;;;;;;5.30;3.70;;;;;;;15.89;93.42;99361.84;5088011;27;102640;-65
2022/10/17 07:02:56;;;;;;;4.80;3.50;;;;;;;16.26;91.85;99371.09;5069438;27;103780;-64
2022/10/17 07:05:24;;;;;;;6.90;3.63;;;;;;;16.23;91.69;99368.69;5069049;27;105381;-64
2022/10/17 07:07:52;;;;;;;6.17;3.80;;;;;;;16.63;89.84;99374.16;5086735;27;103241;-64
2022/10/17 07:10:21;;;;;;;8.07;4.17;;;;;;;17.02;87.33;99369.84;5062980;27;102857;-64
2022/10/17 07:12:49;;;;;;;6.77;3.70;;;;;;;17.23;85.53;99373.28;5069129;27;103816;-64
2022/10/17 07:15:16;;;;;;;10.10;4.53;;;;;;;17.19;86.26;99382.53;5069064;27;103300;-65
2022/10/17 07:17:49;;;;;;;8.10;3.40;;;;;;;17.18;84.82;99379.03;5064973;27;104233;-65
2022/10/17 07:20:19;;;;;;;8.13;3.80;;;;;;;17.49;82.81;99387.00;5087434;27;102965;-65
2022/10/17 07:22:46;;;;;;;7.43;3.20;;;;;;;17.53;83.13;99386.56;5064518;27;104261;-65
2022/10/17 07:25:14;;;;;;;5.50;3.00;;;;;;;17.76;82.45;99387.19;5087551;27;103815;-64
2022/10/17 07:27:49;;;;;;;3.70;2.83;;;;;;;17.92;81.30;99388.31;5067897;27;105821;-65
2022/10/17 07:30:18;;;;;;;5.30;2.97;;;;;;;17.93;80.70;99392.69;5065093;27;102695;-65
2022/10/17 07:32:58;;;;;;;6.50;3.47;;;;;;;18.38;79.20;99378.72;5063015;27;103249;-65
2022/10/17 07:35:26;;;;;;;4.05;3.17;;;;;;;18.68;79.31;99375.84;5065264;27;103923;-64
2022/10/17 07:37:54;;;;;;;4.25;3.00;;;;;;;19.00;77.63;99389.66;5068283;27;103361;-65
2022/10/17 07:40:22;;;;;;;6.57;3.00;;;;;;;18.98;78.97;99394.34;5079208;27;103775;-65
2022/10/17 07:42:55;;;;;;;5.18;3.00;;;;;;;18.88;78.12;99385.50;5070403;27;102813;-65
2022/10/17 07:45:26;;;;;;;4.57;3.38;;;;;;;18.99;76.57;99390.69;5063839;27;103328;-65
2022/10/17 07:47:56;;;;;;;4.70;2.88;;;;;;;18.89;78.50;99400.56;5065657;27;105950;-65
2022/10/17 07:50:24;;;;;;;6.55;3.13;;;;;;;19.27;76.03;99393.34;5076435;27;102729;-65
2022/10/17 07:52:52;;;;;;;6.18;2.80;;;;;;;19.80;76.54;99397.00;5070042;27;103975;-65
2022/10/17 07:55:19;;;;;;;3.33;2.88;;;;;;;19.88;74.02;99394.41;5094647;27;103987;-65
2022/10/17 07:57:47;;;;;;;3.63;3.25;;;;;;;19.96;74.65;99391.78;5095863;27;103790;-65
2022/10/17 08:00:16;;;;;;;5.15;3.40;;;;;;;19.85;73.16;99394.69;5091178;27;102608;-65
2022/10/17 08:02:44;;;;;;;5.55;3.45;;;;;;;19.76;73.65;99398.28;5072911;27;104126;-65
2022/10/17 08:05:12;;;;;;;5.82;3.25;;;;;;;20.11;73.18;99401.00;5090255;27;103266;-65
2022/10/17 08:07:40;;;;;;;4.95;2.97;;;;;;;20.63;72.06;99395.72;5082779;27;103210;-65
2022/10/17 08:10:08;;;;;;;7.47;4.22;;;;;;;20.52;71.17;99398.69;5065035;27;102808;-65
2022/10/17 08:12:41;;;;;;;8.48;3.80;;;;;;;20.42;72.50;99392.53;5070377;27;103181;-65
2022/10/17 08:15:10;;;;;;;5.50;3.60;;;;;;;20.54;71.33;99402.03;5087752;27;104181;-65
2022/10/17 08:17:39;;;;;;;8.68;3.50;;;;;;;20.55;71.61;99398.31;5082538;27;103281;-65
2022/10/17 08:20:08;;;;;;;9.48;3.78;;;;;;;20.82;70.04;99406.25;5066483;27;103068;-65
2022/10/17 08:22:38;;;;;;;7.65;3.65;;;;;;;21.06;68.64;99403.69;5090146;27;103462;-65
2022/10/17 08:25:07;;;;;;;8.63;4.32;;;;;;;21.10;69.14;99399.72;5088917;27;103285;-65
2022/10/17 08:27:35;;;;;;;7.47;3.50;;;;;;;21.14;70.20;99401.06;5090790;27;104346;-65
2022/10/17 08:30:04;;;;;;;5.80;3.45;;;;;;;20.92;70.47;99406.97;5091030;27;102816;-65
2022/10/17 08:32:31;;;;;;;8.13;4.10;;;;;;;20.90;69.30;99411.66;5091141;27;103952;-65
2022/10/17 08:35:01;;;;;;;5.35;4.05;;;;;;;20.86;69.11;99407.59;5086436;27;104132;-65
2022/10/17 08:37:30;;;;;;;4.18;3.33;;;;;;;21.45;66.62;99419.31;5084899;27;103204;-65
2022/10/17 08:39:58;;;;;;;7.55;3.15;;;;;;;21.47;67.43;99415.50;5087461;27;102635;-65
2022/10/17 08:42:50;;;;;;;4.60;3.10;;;;;;;21.43;67.39;99415.97;5085949;27;103001;-66
2022/10/17 08:45:24;;;;;;;5.80;3.35;;;;;;;21.24;67.28;99412.56;5091214;27;103712;-65
2022/10/17 08:47:54;;;;;;;6.93;3.28;;;;;;;21.14;68.14;99411.81;5086451;27;103460;-65
2022/10/17 08:50:30;;;;;;;7.72;3.08;;;;;;;21.31;67.81;99410.03;5071831;27;103345;-65
2022/10/17 08:53:03;;;;;;;5.97;3.47;;;;;;;21.57;66.30;99412.66;5095144;27;103520;-66
2022/10/17 08:55:36;;;;;;;6.60;3.50;;;;;;;21.79;67.06;99414.72;5097119;27;104039;-65
2022/10/17 08:58:14;;;;;;;4.18;3.50;;;;;;;21.65;66.36;99410.00;5092594;27;104145;-65
2022/10/17 09:00:47;;;;;;;7.72;3.20;;;;;;;21.91;65.53;99410.75;5092230;27;103204;-66
2022/10/17 09:03:31;;;;;;;11.43;3.75;;;;;;;22.24;65.91;99407.09;5092536;27;102675;-65
2022/10/17 09:06:12;;;;;;;4.63;2.97;;;;;;;22.34;64.54;99410.44;5092703;27;103777;-66
2022/10/17 09:08:50;;;;;;;6.80;2.83;;;;;;;22.22;64.66;99413.66;5093940;27;103299;-66
2022/10/17 09:11:37;;;;;;;4.88;2.85;;;;;;;22.02;65.00;99407.75;5069494;27;103451;-65
2022/10/17 09:14:18;;;;;;;6.82;2.80;;;;;;;21.69;64.93;99408.69;5093951;27;103194;-65
2022/10/17 09:16:59;;;;;;;4.13;2.20;;;;;;;22.03;65.10;99409.44;5095146;27;103966;-65
2022/10/17 09:19:33;;;;;;;4.35;2.65;;;;;;;22.22;64.54;99408.28;5092721;27;103233;-65
2022/10/17 09:22:08;;;;;;;6.63;2.63;;;;;;;21.84;65.45;99401.63;5096326;27;102693;-65
2022/10/17 09:24:42;;;;;;;6.78;2.70;;;;;;;21.82;64.66;99400.97;5093165;27;102602;-65
2022/10/17 09:27:20;;;;;;;8.48;2.50;;;;;;;22.13;65.90;99406.59;5087764;27;103363;-65
2022/10/17 09:29:53;;;;;;;4.60;2.25;;;;;;;22.40;65.16;99407.09;5084485;27;103390;-66
2022/10/17 09:32:24;;;;;;;5.80;2.65;;;;;;;22.32;64.24;99408.94;5075591;27;103305;-65
2022/10/17 09:34:54;;;;;;;3.25;2.20;;;;;;;22.62;64.18;99404.72;5092472;27;102633;-65
2022/10/17 09:37:32;;;;;;;6.88;2.70;;;;;;;22.25;65.32;99406.09;5084535;27;103974;-65
2022/10/17 09:40:00;;;;;;;3.92;2.53;;;;;;;22.25;65.33;99400.72;5088387;27;103256;-65
2022/10/17 09:42:28;;;;;;;5.82;2.95;;;;;;;22.31;65.29;99402.75;5069603;27;102596;-65
2022/10/17 09:45:13;;;;;;;5.47;2.90;;;;;;;22.54;64.56;99395.63;5088345;27;103950;-65
2022/10/17 09:47:47;;;;;;;6.70;3.30;;;;;;;22.99;64.28;99402.31;5066526;27;103634;-67
2022/10/17 09:50:25;;;;;;;5.32;2.88;;;;;;;23.19;64.54;99392.81;5087872;27;103193;-66
2022/10/17 09:52:55;;;;;;;5.75;2.97;;;;;;;23.02;63.50;99401.97;5091796;27;102617;-65
2022/10/17 09:55:33;;;;;;;8.45;3.00;;;;;;;22.65;63.51;99394.50;5088310;27;103830;-66
2022/10/17 09:58:03;;;;;;;7.10;2.53;;;;;;;22.41;64.89;99398.00;5091990;27;103312;-65
2022/10/17 10:00:35;;;;;;;6.03;2.42;;;;;;;22.46;64.13;99400.19;5081204;27;103662;-66
2022/10/17 10:03:18;;;;;;;4.35;2.63;;;;;;;22.85;63.52;99394.97;5090432;27;103293;-65
2022/10/17 10:06:01;;;;;;;3.15;2.08;;;;;;;23.02;63.08;99399.28;5084535;27;104090;-65
2022/10/17 10:08:33;;;;;;;11.20;2.97;;;;;;;23.28;63.53;99386.38;5096477;27;102954;-66
2022/10/17 10:11:03;;;;;;;4.88;2.67;;;;;;;23.18;63.18;99393.84;5087783;27;103301;-66
2022/10/17 10:13:33;;;;;;;10.18;3.05;;;;;;;23.31;62.79;99402.22;5087034;27;102846;-66
2022/10/17 10:16:21;;;;;;;7.13;2.53;;;;;;;23.35;62.81;99395.47;5096109;27;103720;-65
2022/10/17 10:18:49;;;;;;;5.72;2.13;;;;;;;23.28;63.68;99394.47;5089744;27;104191;-65
2022/10/17 10:21:22;;;;;;;11.32;3.20;;;;;;;23.41;63.65;99402.03;5086553;27;103167;-66
2022/10/17 10:24:11;;;;;;;4.50;2.38;;;;;;;23.57;62.78;99397.41;5083959;27;103010;-66
2022/10/17 10:26:42;;;;;;;5.40;2.58;;;;;;;23.79;62.08;99405.72;5086827;27;105947;-66
2022/10/17 10:29:23;;;;;;;3.65;2.90;;;;;;;23.83;61.39;99405.16;5072315;27;104334;-66
2022/10/17 10:31:53;;;;;;;3.58;2.20;;;;;;;24.06;60.94;99407.88;5087633;27;103381;-66
2022/10/17 10:34:24;;;;;;;5.45;2.80;;;;;;;23.83;61.99;99415.13;5085397;27;103017;-66
2022/10/17 10:37:01;;;;;;;6.53;2.65;;;;;;;23.82;61.26;99416.16;5091968;27;104208;-66
2022/10/17 10:39:48;;;;;;;4.65;2.95;;;;;;;24.17;61.30;99410.19;5073802;27;104402;-66
2022/10/17 10:42:22;;;;;;;5.38;2.72;;;;;;;24.24;60.82;99405.75;5091428;27;103260;-66
2022/10/17 10:44:53;;;;;;;7.70;2.85;;;;;;;24.23;61.53;99406.78;5065774;27;103480;-66
2022/10/17 10:47:24;;;;;;;5.78;2.92;;;;;;;24.39;60.21;99406.66;5093159;27;103063;-66
2022/10/17 10:50:06;;;;;;;6.22;2.72;;;;;;;24.76;58.94;99403.94;5088919;27;103033;-66
2022/10/17 10:52:42;;;;;;;5.90;2.55;;;;;;;25.08;59.66;99407.34;5066767;27;104036;-66
2022/10/17 10:55:25;;;;;;;5.35;2.92;;;;;;;25.22;58.68;99401.94;5092881;27;103040;-66
2022/10/17 10:57:58;;;;;;;3.33;2.60;;;;;;;25.37;57.73;99393.81;5085022;27;102925;-66
2022/10/17 11:00:29;;;;;;;7.72;3.13;;;;;;;25.26;58.97;99397.00;5099542;27;104452;-66
2022/10/17 11:03:03;;;;;;;13.00;3.22;;;;;;;25.64;57.82;99389.59;5087032;27;103219;-65
2022/10/17 11:05:41;;;;;;;4.00;2.58;;;;;;;25.86;58.54;99389.44;5086462;27;104247;-66
2022/10/17 11:08:20;;;;;;;2.78;2.55;;;;;;;25.78;58.18;99392.28;5094928;27;103413;-66
2022/10/17 11:11:00;;;;;;;6.03;3.03;;;;;;;25.72;57.28;99398.44;5075220;27;104335;-66
2022/10/17 11:13:33;;;;;;;8.48;2.95;;;;;;;25.91;57.84;99395.09;5095365;27;103352;-66
2022/10/17 11:16:10;;;;;;;6.72;2.80;;;;;;;26.11;56.79;99389.91;5086455;27;102597;-66
2022/10/17 11:18:44;;;;;;;7.05;3.50;;;;;;;26.18;55.92;99381.88;5072682;27;103772;-65
2022/10/17 11:21:16;;;;;;;5.63;2.90;;;;;;;26.41;54.58;99393.34;5071377;27;104432;-66
2022/10/17 11:23:48;;;;;;;6.75;3.17;;;;;;;26.57;54.52;99387.66;5086084;27;104058;-65
2022/10/17 11:26:25;;;;;;;4.00;2.60;;;;;;;26.56;53.59;99382.41;5085149;27;102836;-66
2022/10/17 11:28:53;;;;;;;11.02;2.70;;;;;;;26.80;51.67;99382.00;5093873;27;103632;-66
2022/10/17 11:31:23;;;;;;;4.18;2.88;;;;;;;26.89;52.13;99375.41;5087097;27;103809;-66
2022/10/17 11:33:56;;;;;;;9.38;2.13;;;;;;;27.30;51.86;99372.69;5094495;27;103060;-66
2022/10/17 11:36:28;;;;;;;4.57;2.30;;;;;;;27.75;50.23;99369.38;5091640;27;103243;-66
2022/10/17 11:39:00;;;;;;;3.35;1.90;;;;;;;27.85;51.26;99367.06;5087106;27;103715;-66
2022/10/17 11:41:37;;;;;;;4.07;2.10;;;;;;;27.73;50.04;99371.47;5066908;27;104526;-66
2022/10/17 11:44:11;;;;;;;5.90;2.38;;;;;;;28.10;48.79;99362.78;5087109;27;103287;-66
2022/10/17 11:46:41;;;;;;;3.85;2.10;;;;;;;28.44;46.76;99363.63;5091712;27;102549;-66
2022/10/17 11:49:13;;;;;;;2.95;1.90;;;;;;;28.20;47.00;99359.66;5091144;27;103856;-66
2022/10/17 11:51:51;;;;;;;6.13;1.95;;;;;;;28.37;47.08;99355.50;5088778;27;103802;-66